Apollon D — A8QD6 — position and weather

sailwx.info

Track history (hours):
 
Tides and Currents Weather Stations Pressure Air Temp Water Temp Dewpoint Dewpoint Depression Visibility Wind Speed Wind Dir Waves Ship Positions

Apollon D

Last reported at 2017-Oct-17 08:34 UTC. Time now 2017-Oct-17 13:15 UTC.
Position N 22°08' E 114°19'.

Length 209 m; draft 9.8 m.

Type: Ship (hazmat cat A). MMSI: 636091614.

Date/timePositionNaut miles runAvg speedWind from/ knotsBaromVisibWave heightAir tempDewpointWater temp
2017-Oct-17 08:34N 22°08' E 114°19'113.1
2017-Oct-17 08:29N 22°08' E 114°20'715.4
2017-Oct-17 08:00N 22°08' E 114°28'815.5
2017-Oct-17 07:30N 22°09' E 114°36'815.6
2017-Oct-17 07:00N 22°11' E 114°44'1016.7
2017-Oct-17 06:24N 22°13' E 114°55'717.0
2017-Oct-17 06:00N 22°15' E 115°02'917.0
2017-Oct-17 05:30N 22°18' E 115°11'  
2017-Oct-14 07:10N 34°19' E 134°59'316.2
2017-Oct-14 06:58N 34°22' E 135°01'817.3
2017-Oct-14 06:30N 34°28' E 135°07'816.7
2017-Oct-14 06:00N 34°34' E 135°15'611.9
2017-Oct-14 05:30N 34°40' E 135°15'1 2.3
2017-Oct-14 04:59N 34°41' E 135°16'0 0.0
2017-Oct-14 04:29N 34°41' E 135°16'0 0.0
2017-Oct-14 03:59N 34°41' E 135°16'0 0.0
2017-Oct-14 03:29N 34°41' E 135°16'0 0.0
2017-Oct-14 02:59N 34°41' E 135°16'0 0.0
2017-Oct-14 02:23N 34°41' E 135°16'0 0.0
2017-Oct-14 01:59N 34°41' E 135°16'0 0.0
2017-Oct-14 01:23N 34°41' E 135°16'0 0.0
2017-Oct-14 00:59N 34°41' E 135°16'0 0.0
2017-Oct-14 00:29N 34°41' E 135°16'0 0.0
2017-Oct-13 23:47N 34°41' E 135°16'0 0.0
2017-Oct-13 23:29N 34°41' E 135°16'0 0.5
2017-Oct-13 23:00N 34°41' E 135°16'2 3.2
2017-Oct-13 22:30N 34°39' E 135°16'611.3
2017-Oct-13 22:00N 34°33' E 135°15'712.8
2017-Oct-13 21:30N 34°28' E 135°09'713.6
2017-Oct-13 21:00N 34°23' E 135°04'816.4
2017-Oct-13 20:30N 34°16' E 134°59'714.8
2017-Oct-13 20:00N 34°09' E 135°00'713.3
2017-Oct-13 19:30N 34°02' E 134°59'224 6.5
2017-Oct-12 08:54N 34°54' E 139°23'410.3
2017-Oct-12 08:30N 34°56' E 139°27'510.5
2017-Oct-12 08:00N 34°60' E 139°32'611.7
2017-Oct-12 07:30N 35°04' E 139°38'612.2
2017-Oct-12 07:00N 35°07' E 139°44'611.7
2017-Oct-12 06:30N 35°12' E 139°46'611.9
2017-Oct-12 06:00N 35°18' E 139°44'612.3
2017-Oct-12 05:30N 35°24' E 139°41'0 0.7
2017-Oct-12 05:00N 35°24' E 139°41'0 0.0
2017-Oct-12 04:30N 35°24' E 139°41'0 0.0
2017-Oct-12 04:00N 35°24' E 139°41'0 0.0
2017-Oct-12 03:30N 35°24' E 139°41'0 0.0
2017-Oct-12 03:00N 35°24' E 139°41'0 0.0
2017-Oct-12 02:30N 35°24' E 139°41'0 0.0
2017-Oct-12 02:00N 35°24' E 139°41'0 0.0
2017-Oct-12 01:30N 35°24' E 139°41'0 0.0
2017-Oct-12 01:00N 35°24' E 139°41'0 0.0
2017-Oct-12 00:24N 35°24' E 139°41'0 0.0
2017-Oct-12 00:00N 35°24' E 139°41'0 0.0
2017-Oct-11 23:24N 35°24' E 139°41'0 0.0
2017-Oct-11 23:00N 35°24' E 139°41'0 0.5
2017-Oct-11 22:30N 35°24' E 139°41'2 4.9
2017-Oct-11 22:00N 35°25' E 139°43'1010.1
2017-Oct-11 20:58N 35°34' E 139°48'  
Track history (hours):
 
Tides and Currents Weather Stations Pressure Air Temp Water Temp Dewpoint Dewpoint Depression Visibility Wind Speed Wind Dir Waves Ship Positions

Apollon D

Last reported at 2017-Oct-17 08:34 UTC. Time now 2017-Oct-17 13:15 UTC.
Position N 22°08' E 114°19'.

Length 209 m; draft 9.8 m.

Type: Ship (hazmat cat A). MMSI: 636091614.

Date/timePositionNaut miles runAvg speedWind from/ knotsBaromVisibWave heightAir tempDewpointWater temp
2017-Oct-17 08:34N 22°08' E 114°19'113.1
2017-Oct-17 08:29N 22°08' E 114°20'715.4
2017-Oct-17 08:00N 22°08' E 114°28'815.5
2017-Oct-17 07:30N 22°09' E 114°36'815.6
2017-Oct-17 07:00N 22°11' E 114°44'1016.7
2017-Oct-17 06:24N 22°13' E 114°55'717.0
2017-Oct-17 06:00N 22°15' E 115°02'917.0
2017-Oct-17 05:30N 22°18' E 115°11'  
2017-Oct-14 07:10N 34°19' E 134°59'316.2
2017-Oct-14 06:58N 34°22' E 135°01'817.3
2017-Oct-14 06:30N 34°28' E 135°07'816.7
2017-Oct-14 06:00N 34°34' E 135°15'611.9
2017-Oct-14 05:30N 34°40' E 135°15'1 2.3
2017-Oct-14 04:59N 34°41' E 135°16'0 0.0
2017-Oct-14 04:29N 34°41' E 135°16'0 0.0
2017-Oct-14 03:59N 34°41' E 135°16'0 0.0
2017-Oct-14 03:29N 34°41' E 135°16'0 0.0
2017-Oct-14 02:59N 34°41' E 135°16'0 0.0
2017-Oct-14 02:23N 34°41' E 135°16'0 0.0
2017-Oct-14 01:59N 34°41' E 135°16'0 0.0
2017-Oct-14 01:23N 34°41' E 135°16'0 0.0
2017-Oct-14 00:59N 34°41' E 135°16'0 0.0
2017-Oct-14 00:29N 34°41' E 135°16'0 0.0
2017-Oct-13 23:47N 34°41' E 135°16'0 0.0
2017-Oct-13 23:29N 34°41' E 135°16'0 0.5
2017-Oct-13 23:00N 34°41' E 135°16'2 3.2
2017-Oct-13 22:30N 34°39' E 135°16'611.3
2017-Oct-13 22:00N 34°33' E 135°15'712.8
2017-Oct-13 21:30N 34°28' E 135°09'713.6
2017-Oct-13 21:00N 34°23' E 135°04'816.4
2017-Oct-13 20:30N 34°16' E 134°59'714.8
2017-Oct-13 20:00N 34°09' E 135°00'713.3
2017-Oct-13 19:30N 34°02' E 134°59'224 6.5
2017-Oct-12 08:54N 34°54' E 139°23'410.3
2017-Oct-12 08:30N 34°56' E 139°27'510.5
2017-Oct-12 08:00N 34°60' E 139°32'611.7
2017-Oct-12 07:30N 35°04' E 139°38'612.2
2017-Oct-12 07:00N 35°07' E 139°44'611.7
2017-Oct-12 06:30N 35°12' E 139°46'611.9
2017-Oct-12 06:00N 35°18' E 139°44'612.3
2017-Oct-12 05:30N 35°24' E 139°41'0 0.7
2017-Oct-12 05:00N 35°24' E 139°41'0 0.0
2017-Oct-12 04:30N 35°24' E 139°41'0 0.0
2017-Oct-12 04:00N 35°24' E 139°41'0 0.0
2017-Oct-12 03:30N 35°24' E 139°41'0 0.0
2017-Oct-12 03:00N 35°24' E 139°41'0 0.0
2017-Oct-12 02:30N 35°24' E 139°41'0 0.0
2017-Oct-12 02:00N 35°24' E 139°41'0 0.0
2017-Oct-12 01:30N 35°24' E 139°41'0 0.0
2017-Oct-12 01:00N 35°24' E 139°41'0 0.0
2017-Oct-12 00:24N 35°24' E 139°41'0 0.0
2017-Oct-12 00:00N 35°24' E 139°41'0 0.0
2017-Oct-11 23:24N 35°24' E 139°41'0 0.0
2017-Oct-11 23:00N 35°24' E 139°41'0 0.5
2017-Oct-11 22:30N 35°24' E 139°41'2 4.9
2017-Oct-11 22:00N 35°25' E 139°43'1010.1
2017-Oct-11 20:58N 35°34' E 139°48'  

Dump ship's entire track history